createdAt,value
2022-08-29T00:01:02.049Z,23.07
2022-08-29T00:03:28.412Z,23.08
2022-08-29T00:05:56.027Z,23.07
2022-08-29T00:08:22.395Z,23.07
2022-08-29T00:10:48.788Z,23.06
2022-08-29T00:13:15.204Z,23.05
2022-08-29T00:15:45.167Z,23.06
2022-08-29T00:18:12.124Z,23.05
2022-08-29T00:20:38.529Z,23.05
2022-08-29T00:23:04.940Z,23.05
2022-08-29T00:25:31.364Z,23.03
2022-08-29T00:27:57.717Z,23.03
2022-08-29T00:30:24.203Z,22.99
2022-08-29T00:32:50.727Z,23.02
2022-08-29T00:35:18.451Z,23.02
2022-08-29T00:37:44.825Z,23.02
2022-08-29T00:40:12.394Z,23.00
2022-08-29T00:42:38.921Z,23.00
2022-08-29T00:45:05.722Z,22.98
2022-08-29T00:47:36.232Z,22.98
2022-08-29T00:50:02.849Z,22.98
2022-08-29T00:52:42.040Z,22.97
2022-08-29T00:55:13.629Z,22.97
2022-08-29T00:57:40.525Z,22.98
2022-08-29T01:00:07.332Z,22.99
2022-08-29T01:02:37.289Z,22.97
2022-08-29T01:05:07.502Z,22.97
2022-08-29T01:07:34.338Z,22.97
2022-08-29T01:10:13.548Z,22.76
2022-08-29T01:12:40.261Z,22.39
2022-08-29T01:15:08.608Z,22.51
2022-08-29T01:17:36.922Z,22.68
2022-08-29T01:20:08.722Z,22.77
2022-08-29T01:22:35.029Z,22.84
2022-08-29T01:25:02.062Z,22.84
2022-08-29T01:27:29.449Z,22.94
2022-08-29T01:29:56.036Z,23.02
2022-08-29T01:32:23.307Z,22.91
2022-08-29T01:34:49.685Z,22.89
2022-08-29T01:37:16.047Z,22.95
2022-08-29T01:39:42.800Z,22.90
2022-08-29T01:42:17.081Z,22.83
2022-08-29T01:44:50.061Z,22.84
2022-08-29T01:47:18.600Z,22.78
2022-08-29T01:49:45.259Z,22.77
2022-08-29T01:52:12.710Z,22.76
2022-08-29T01:54:42.532Z,22.77
2022-08-29T01:57:12.816Z,22.77
2022-08-29T01:59:39.575Z,22.77
2022-08-29T02:02:08.106Z,22.77
2022-08-29T02:04:34.501Z,22.77
2022-08-29T02:07:00.866Z,22.77
2022-08-29T02:09:27.470Z,22.76
2022-08-29T02:11:54.647Z,22.78
2022-08-29T02:14:21.040Z,22.77
2022-08-29T02:16:47.932Z,22.78
2022-08-29T02:19:14.390Z,22.81
2022-08-29T02:21:41.043Z,22.79
2022-08-29T02:24:24.017Z,22.83
2022-08-29T02:26:51.682Z,22.80
2022-08-29T02:29:18.042Z,22.82
2022-08-29T02:31:44.436Z,22.85
2022-08-29T02:34:11.547Z,22.83
2022-08-29T02:36:38.009Z,22.80
2022-08-29T02:39:07.412Z,22.81
2022-08-29T02:41:33.772Z,22.79
2022-08-29T02:44:00.165Z,22.80
2022-08-29T02:46:26.985Z,22.79
2022-08-29T02:49:00.872Z,22.76
2022-08-29T02:51:28.318Z,22.75
2022-08-29T02:53:54.841Z,22.72
2022-08-29T02:56:21.218Z,22.74
2022-08-29T02:58:47.727Z,22.75
2022-08-29T03:01:14.501Z,22.77
2022-08-29T03:03:40.937Z,22.74
2022-08-29T03:06:07.502Z,22.74
2022-08-29T03:08:34.294Z,22.71
2022-08-29T03:11:02.139Z,22.71
2022-08-29T03:13:28.533Z,22.73
2022-08-29T03:15:54.944Z,22.73
2022-08-29T03:18:21.341Z,22.72
2022-08-29T03:20:48.956Z,22.71
2022-08-29T03:23:16.006Z,22.70
2022-08-29T03:25:42.382Z,22.69
2022-08-29T03:28:08.755Z,22.71
2022-08-29T03:30:35.129Z,22.70
2022-08-29T03:33:02.366Z,22.68
2022-08-29T03:35:28.722Z,22.68
2022-08-29T03:37:55.150Z,22.68
2022-08-29T03:40:21.549Z,22.65
2022-08-29T03:42:48.060Z,22.63
2022-08-29T03:45:15.235Z,22.64
2022-08-29T03:47:41.758Z,22.63
2022-08-29T03:50:08.373Z,22.63
2022-08-29T03:52:34.751Z,22.64
2022-08-29T03:55:01.164Z,22.64
2022-08-29T03:57:27.622Z,22.62
2022-08-29T03:59:56.865Z,22.63
2022-08-29T04:02:23.247Z,22.61
2022-08-29T04:05:08.393Z,22.62
2022-08-29T04:07:54.141Z,22.61
2022-08-29T04:10:25.550Z,22.61
2022-08-29T04:12:54.768Z,22.61
2022-08-29T04:15:21.590Z,22.59
2022-08-29T04:17:53.128Z,22.60
2022-08-29T04:20:24.579Z,22.64
2022-08-29T04:22:51.667Z,22.63
2022-08-29T04:25:18.041Z,22.58
2022-08-29T04:27:44.859Z,22.58
2022-08-29T04:30:15.461Z,22.58
2022-08-29T04:32:41.827Z,22.58
2022-08-29T04:35:08.451Z,22.55
2022-08-29T04:37:35.005Z,22.57
2022-08-29T04:40:01.959Z,22.56
2022-08-29T04:42:28.532Z,22.67
2022-08-29T04:44:54.906Z,22.53
2022-08-29T04:47:22.229Z,22.47
2022-08-29T04:49:49.765Z,22.24
2022-08-29T04:52:20.907Z,21.84
2022-08-29T04:54:47.289Z,22.09
2022-08-29T04:57:13.655Z,22.26
2022-08-29T04:59:40.095Z,22.33
2022-08-29T05:02:06.476Z,22.37
2022-08-29T05:04:32.902Z,22.36
2022-08-29T05:06:59.267Z,22.36
2022-08-29T05:09:25.637Z,22.36
2022-08-29T05:11:52.044Z,22.35
2022-08-29T05:14:18.842Z,22.30
2022-08-29T05:16:45.639Z,22.36
2022-08-29T05:19:15.911Z,22.43
2022-08-29T05:21:42.446Z,22.65
2022-08-29T05:24:09.670Z,22.74
2022-08-29T05:26:37.757Z,22.81
2022-08-29T05:29:08.468Z,22.74
2022-08-29T05:31:36.702Z,22.79
2022-08-29T05:34:03.501Z,22.80
2022-08-29T05:36:49.850Z,22.82
2022-08-29T05:39:16.234Z,22.88
2022-08-29T05:41:42.615Z,22.89
2022-08-29T05:44:08.978Z,22.78
2022-08-29T05:46:35.425Z,22.59
2022-08-29T05:49:02.377Z,22.52
2022-08-29T05:51:29.007Z,22.40
2022-08-29T05:53:55.439Z,22.49
2022-08-29T05:56:22.821Z,21.97
2022-08-29T05:58:49.173Z,21.50
2022-08-29T06:01:20.018Z,21.40
2022-08-29T06:03:46.506Z,21.41
2022-08-29T06:06:12.907Z,21.34
2022-08-29T06:08:39.286Z,21.18
2022-08-29T06:11:05.669Z,21.47
2022-08-29T06:13:32.023Z,21.64
2022-08-29T06:15:58.473Z,21.85
2022-08-29T06:18:31.558Z,21.94
2022-08-29T06:21:05.750Z,22.02
2022-08-29T06:23:32.105Z,22.01
2022-08-29T06:25:58.475Z,22.05
2022-08-29T06:28:31.179Z,22.07
2022-08-29T06:30:57.813Z,22.10
2022-08-29T06:33:24.214Z,22.09
2022-08-29T06:35:50.607Z,22.05
2022-08-29T06:38:17.239Z,22.09
2022-08-29T06:40:43.776Z,22.12
2022-08-29T06:43:10.190Z,22.12
2022-08-29T06:45:39.954Z,22.09
2022-08-29T06:48:06.330Z,22.10
2022-08-29T06:50:32.704Z,22.09
2022-08-29T06:53:14.751Z,22.08
2022-08-29T06:55:46.541Z,22.12
2022-08-29T06:58:13.266Z,22.03
2022-08-29T07:00:40.187Z,22.08
2022-08-29T07:03:06.977Z,22.08
2022-08-29T07:05:33.353Z,22.07
2022-08-29T07:07:59.710Z,22.16
2022-08-29T07:10:26.140Z,22.14
2022-08-29T07:12:52.601Z,22.15
2022-08-29T07:15:19.413Z,22.13
2022-08-29T07:17:45.779Z,22.14
2022-08-29T07:20:12.175Z,22.15
2022-08-29T07:22:38.570Z,22.13
2022-08-29T07:25:05.113Z,22.17
2022-08-29T07:27:31.499Z,22.17
2022-08-29T07:29:57.857Z,22.20
2022-08-29T07:32:26.036Z,22.19
2022-08-29T07:34:55.903Z,22.31
2022-08-29T07:37:22.673Z,22.29
2022-08-29T07:39:49.038Z,22.26
2022-08-29T07:42:15.763Z,22.22
2022-08-29T07:44:42.123Z,22.16
2022-08-29T07:47:08.509Z,22.15
2022-08-29T07:49:41.077Z,22.24
2022-08-29T07:52:08.010Z,22.24
2022-08-29T07:54:34.420Z,22.24
2022-08-29T07:57:00.934Z,22.25
2022-08-29T07:59:27.301Z,22.24
2022-08-29T08:01:53.836Z,22.25
2022-08-29T08:04:20.277Z,22.27
2022-08-29T08:06:46.699Z,22.23
2022-08-29T08:09:15.202Z,22.23
2022-08-29T08:11:41.555Z,22.23
2022-08-29T08:14:07.957Z,22.27
2022-08-29T08:16:34.551Z,22.29
2022-08-29T08:19:01.043Z,22.25
2022-08-29T08:21:27.654Z,22.22
2022-08-29T08:23:54.049Z,22.07
2022-08-29T08:26:20.446Z,21.96
2022-08-29T08:28:46.896Z,22.11
2022-08-29T08:31:14.394Z,22.20
2022-08-29T08:33:41.077Z,22.22
2022-08-29T08:36:13.462Z,22.20
2022-08-29T08:38:39.821Z,22.23
2022-08-29T08:41:27.042Z,22.24
2022-08-29T08:43:54.873Z,22.25
2022-08-29T08:46:28.820Z,22.29
2022-08-29T08:48:55.380Z,22.30
2022-08-29T08:51:22.682Z,22.30
2022-08-29T08:53:50.311Z,22.31
2022-08-29T08:56:29.587Z,22.32
2022-08-29T08:58:57.878Z,22.34
2022-08-29T09:01:26.507Z,22.30
2022-08-29T09:04:10.631Z,22.30
2022-08-29T09:06:43.057Z,22.28
2022-08-29T09:09:14.489Z,22.30
2022-08-29T09:12:10.682Z,22.28
2022-08-29T09:14:41.027Z,22.31
2022-08-29T09:17:07.659Z,22.32
2022-08-29T09:19:34.066Z,22.30
2022-08-29T09:22:02.047Z,22.33
2022-08-29T09:24:36.244Z,22.35
2022-08-29T09:27:02.592Z,22.35
2022-08-29T09:29:29.488Z,22.35
2022-08-29T09:32:04.079Z,22.36
2022-08-29T09:34:57.486Z,22.36
2022-08-29T09:37:25.619Z,22.32
2022-08-29T09:39:53.095Z,22.32
2022-08-29T09:42:21.521Z,22.30
2022-08-29T09:44:54.578Z,22.26
2022-08-29T09:47:22.094Z,22.27
2022-08-29T09:50:05.739Z,22.16
2022-08-29T09:52:32.364Z,22.13
2022-08-29T09:54:58.882Z,22.23
2022-08-29T09:57:25.986Z,22.28
2022-08-29T10:00:07.567Z,22.34
2022-08-29T10:02:38.444Z,22.36
2022-08-29T10:05:13.265Z,22.38
2022-08-29T10:07:46.819Z,22.38
2022-08-29T10:10:17.099Z,22.37
2022-08-29T10:12:47.166Z,22.35
2022-08-29T10:15:50.008Z,22.36
2022-08-29T10:18:28.531Z,22.51
2022-08-29T10:21:13.629Z,22.69
2022-08-29T10:23:45.368Z,22.76
2022-08-29T10:26:30.688Z,22.74
2022-08-29T10:29:00.214Z,22.77
2022-08-29T10:31:32.669Z,22.89
2022-08-29T10:34:02.834Z,22.82
2022-08-29T10:36:31.171Z,22.84
2022-08-29T10:39:10.758Z,22.93
2022-08-29T10:41:53.566Z,23.02
2022-08-29T10:44:24.742Z,23.03
2022-08-29T10:46:53.731Z,23.12
2022-08-29T10:49:35.602Z,23.17
2022-08-29T10:52:04.075Z,23.24
2022-08-29T10:54:49.343Z,23.28
2022-08-29T10:57:29.760Z,23.31
2022-08-29T10:59:59.650Z,23.34
2022-08-29T11:02:28.985Z,23.39
2022-08-29T11:04:56.853Z,23.47
2022-08-29T11:07:26.752Z,23.34
2022-08-29T11:09:54.454Z,22.99
2022-08-29T11:12:21.866Z,22.93
2022-08-29T11:15:02.295Z,22.94
2022-08-29T11:17:32.305Z,23.21
2022-08-29T11:20:11.669Z,23.32
2022-08-29T11:22:51.862Z,23.39
2022-08-29T11:25:18.836Z,23.39
2022-08-29T11:27:57.407Z,23.41
2022-08-29T11:30:27.403Z,23.46
2022-08-29T11:33:17.931Z,23.49
2022-08-29T11:36:05.310Z,23.44
2022-08-29T11:38:38.335Z,23.75
2022-08-29T11:41:26.931Z,23.77
2022-08-29T11:43:56.173Z,23.80
2022-08-29T11:46:33.634Z,23.41
2022-08-29T11:49:18.725Z,23.24
2022-08-29T11:51:46.361Z,23.12
2022-08-29T11:54:33.836Z,23.11
2022-08-29T11:57:00.149Z,23.07
2022-08-29T11:59:44.904Z,23.45
2022-08-29T12:02:11.736Z,23.80
2022-08-29T12:04:56.992Z,23.86
2022-08-29T12:07:31.949Z,23.90
2022-08-29T12:09:58.322Z,23.97
2022-08-29T12:12:38.094Z,24.16
2022-08-29T12:15:23.206Z,23.97
2022-08-29T12:18:01.961Z,23.88
2022-08-29T12:20:32.018Z,24.10
2022-08-29T12:23:10.617Z,24.04
2022-08-29T12:25:46.921Z,24.09
2022-08-29T12:28:21.011Z,24.10
2022-08-29T12:30:47.308Z,24.17
2022-08-29T12:33:20.417Z,24.20
2022-08-29T12:36:00.772Z,24.15
2022-08-29T12:38:50.006Z,24.18
2022-08-29T12:41:19.336Z,24.21
2022-08-29T12:43:46.636Z,24.22
2022-08-29T12:46:32.886Z,24.17
2022-08-29T12:49:20.755Z,23.61
2022-08-29T12:51:48.840Z,23.56
2022-08-29T12:54:15.202Z,23.44
2022-08-29T12:56:42.790Z,23.46
2022-08-29T12:59:12.298Z,23.40
2022-08-29T13:01:38.710Z,23.78
2022-08-29T13:04:10.930Z,23.93
2022-08-29T13:06:37.418Z,23.97
2022-08-29T13:09:04.958Z,23.83
2022-08-29T13:11:31.411Z,23.45
2022-08-29T13:14:08.246Z,23.67
2022-08-29T13:16:34.658Z,23.85
2022-08-29T13:19:10.822Z,23.80
2022-08-29T13:21:38.083Z,23.60
2022-08-29T13:24:05.041Z,23.58
2022-08-29T13:26:34.764Z,23.77
2022-08-29T13:29:12.377Z,23.80
2022-08-29T13:31:38.895Z,23.45
2022-08-29T13:34:17.574Z,23.60
2022-08-29T13:36:59.968Z,23.68
2022-08-29T13:39:28.049Z,23.80
2022-08-29T13:41:57.152Z,23.72
2022-08-29T13:44:25.742Z,23.90
2022-08-29T13:46:52.531Z,23.71
2022-08-29T13:49:19.534Z,23.83
2022-08-29T13:51:45.912Z,23.97
2022-08-29T13:54:12.390Z,24.08
2022-08-29T13:56:38.772Z,23.97
2022-08-29T13:59:05.209Z,24.05
2022-08-29T14:02:08.426Z,24.21
2022-08-29T14:04:37.509Z,23.90
2022-08-29T14:07:04.614Z,23.90
2022-08-29T14:09:32.439Z,24.01
2022-08-29T14:11:58.963Z,24.11
2022-08-29T14:14:25.325Z,24.11
2022-08-29T14:16:53.589Z,24.07
2022-08-29T14:19:20.446Z,23.73
2022-08-29T14:21:46.807Z,23.72
2022-08-29T14:24:13.214Z,23.84
2022-08-29T14:26:39.573Z,24.01
2022-08-29T14:29:06.163Z,23.79
2022-08-29T14:31:32.579Z,23.78
2022-08-29T14:33:59.033Z,23.94
2022-08-29T14:36:27.410Z,23.90
2022-08-29T14:38:56.602Z,23.89
2022-08-29T14:41:23.037Z,23.87
2022-08-29T14:43:49.410Z,23.82
2022-08-29T14:46:15.800Z,23.93
2022-08-29T14:48:42.181Z,23.88
2022-08-29T14:51:08.533Z,23.83
2022-08-29T14:53:37.954Z,23.92
2022-08-29T14:56:37.466Z,23.94
2022-08-29T14:59:04.600Z,23.66
2022-08-29T15:01:31.090Z,23.89
2022-08-29T15:03:57.498Z,24.15
2022-08-29T15:06:23.908Z,24.00
2022-08-29T15:08:50.265Z,23.60
2022-08-29T15:11:16.775Z,23.38
2022-08-29T15:13:43.152Z,23.56
2022-08-29T15:16:09.700Z,23.82
2022-08-29T15:19:14.881Z,23.66
2022-08-29T15:21:22.618Z,23.85
2022-08-29T15:23:48.993Z,23.82
2022-08-29T15:26:15.762Z,23.78
2022-08-29T15:28:42.126Z,23.56
2022-08-29T15:31:08.603Z,23.87
2022-08-29T15:33:35.021Z,24.02
2022-08-29T15:36:01.380Z,24.06
2022-08-29T15:38:27.763Z,24.06
2022-08-29T15:40:54.211Z,23.99
2022-08-29T15:43:20.629Z,23.92
2022-08-29T15:45:47.035Z,23.92
2022-08-29T15:48:13.435Z,24.00
2022-08-29T15:50:40.867Z,23.89
2022-08-29T15:53:07.365Z,23.81
2022-08-29T15:55:33.765Z,23.83
2022-08-29T15:58:00.138Z,23.92
2022-08-29T16:00:30.445Z,23.94
2022-08-29T16:02:57.873Z,23.85
2022-08-29T16:05:24.267Z,23.92
2022-08-29T16:07:50.814Z,24.01
2022-08-29T16:10:17.170Z,24.03
2022-08-29T16:12:43.524Z,24.04
2022-08-29T16:15:10.180Z,24.00
2022-08-29T16:17:37.102Z,23.97
2022-08-29T16:20:03.880Z,24.07
2022-08-29T16:22:30.282Z,23.97
2022-08-29T16:24:56.645Z,23.95
2022-08-29T16:27:24.184Z,23.85
2022-08-29T16:29:51.091Z,23.98
2022-08-29T16:32:17.501Z,23.99
2022-08-29T16:34:43.858Z,24.06
2022-08-29T16:37:10.237Z,23.98
2022-08-29T16:39:36.581Z,23.85
2022-08-29T16:42:02.934Z,23.82
2022-08-29T16:44:31.696Z,23.99
2022-08-29T16:46:58.078Z,23.98
2022-08-29T16:49:24.690Z,23.93
2022-08-29T16:51:52.483Z,24.01
2022-08-29T16:54:18.833Z,23.96
2022-08-29T16:56:45.250Z,24.19
2022-08-29T16:59:12.462Z,24.13
2022-08-29T17:01:40.021Z,24.18
2022-08-29T17:04:07.486Z,24.25
2022-08-29T17:06:33.909Z,24.22
2022-08-29T17:09:00.235Z,24.30
2022-08-29T17:11:26.597Z,24.04
2022-08-29T17:13:52.970Z,23.93
2022-08-29T17:16:19.340Z,23.81
2022-08-29T17:18:46.479Z,23.77
2022-08-29T17:21:12.834Z,23.78
2022-08-29T17:23:39.203Z,23.79
2022-08-29T17:26:06.282Z,23.77
2022-08-29T17:28:32.645Z,23.75
2022-08-29T17:30:59.030Z,23.76
2022-08-29T17:33:26.290Z,23.72
2022-08-29T17:35:52.670Z,23.73
2022-08-29T17:38:19.059Z,23.73
2022-08-29T17:40:45.970Z,23.71
2022-08-29T17:43:14.076Z,23.71
2022-08-29T17:45:40.733Z,23.70
2022-08-29T17:48:07.494Z,23.71
2022-08-29T17:50:34.327Z,23.70
2022-08-29T17:53:00.812Z,23.71
2022-08-29T17:55:27.578Z,23.68
2022-08-29T17:57:57.175Z,23.70
2022-08-29T18:00:24.985Z,23.70
2022-08-29T18:02:51.513Z,22.94
2022-08-29T18:05:18.254Z,22.77
2022-08-29T18:07:44.637Z,22.59
2022-08-29T18:10:11.573Z,22.37
2022-08-29T18:12:38.141Z,22.26
2022-08-29T18:15:06.072Z,22.21
2022-08-29T18:17:32.855Z,22.23
2022-08-29T18:20:01.210Z,22.28
2022-08-29T18:22:29.317Z,22.73
2022-08-29T18:24:56.359Z,22.96
2022-08-29T18:27:22.727Z,23.04
2022-08-29T18:29:49.174Z,22.97
2022-08-29T18:32:15.533Z,23.03
2022-08-29T18:34:41.909Z,23.04
2022-08-29T18:37:08.277Z,23.04
2022-08-29T18:39:34.643Z,23.02
2022-08-29T18:42:01.566Z,22.98
2022-08-29T18:44:27.913Z,22.17
2022-08-29T18:46:54.279Z,22.04
2022-08-29T18:49:40.597Z,22.15
2022-08-29T18:52:07.074Z,21.95
2022-08-29T18:54:34.425Z,21.98
2022-08-29T18:57:00.788Z,22.17
2022-08-29T18:59:29.490Z,22.18
2022-08-29T19:01:56.574Z,21.95
2022-08-29T19:04:25.386Z,21.89
2022-08-29T19:06:51.943Z,21.78
2022-08-29T19:09:18.293Z,21.95
2022-08-29T19:11:45.725Z,21.86
2022-08-29T19:14:12.262Z,21.94
2022-08-29T19:16:40.248Z,21.77
2022-08-29T19:19:07.461Z,21.85
2022-08-29T19:21:42.265Z,21.82
2022-08-29T19:24:08.637Z,21.90
2022-08-29T19:26:35.742Z,21.88
2022-08-29T19:29:04.710Z,21.75
2022-08-29T19:31:31.124Z,21.70
2022-08-29T19:33:57.619Z,21.73
2022-08-29T19:36:24.382Z,21.63
2022-08-29T19:38:50.819Z,21.55
2022-08-29T19:41:17.409Z,21.51
2022-08-29T19:43:43.766Z,21.56
2022-08-29T19:46:10.895Z,21.56
2022-08-29T19:48:40.840Z,21.50
2022-08-29T19:51:12.938Z,21.71
2022-08-29T19:53:41.382Z,21.78
2022-08-29T19:56:07.970Z,22.05
2022-08-29T19:58:37.138Z,21.62
2022-08-29T20:01:04.473Z,21.52
2022-08-29T20:03:33.594Z,21.50
2022-08-29T20:06:00.076Z,21.45
2022-08-29T20:08:26.769Z,21.39
2022-08-29T20:10:55.890Z,21.39
2022-08-29T20:13:22.265Z,21.32
2022-08-29T20:15:49.893Z,21.33
2022-08-29T20:18:18.573Z,21.28
2022-08-29T20:20:45.353Z,21.41
2022-08-29T20:23:11.784Z,21.93
2022-08-29T20:25:38.624Z,21.48
2022-08-29T20:28:06.066Z,21.34
2022-08-29T20:30:33.061Z,21.42
2022-08-29T20:32:59.410Z,21.48
2022-08-29T20:35:44.250Z,21.40
2022-08-29T20:38:10.657Z,21.39
2022-08-29T20:40:37.718Z,21.27
2022-08-29T20:43:04.617Z,21.38
2022-08-29T20:45:30.985Z,21.31
2022-08-29T20:47:57.887Z,21.36
2022-08-29T20:50:24.637Z,21.41
2022-08-29T20:52:51.204Z,21.38
2022-08-29T20:55:18.590Z,21.32
2022-08-29T20:57:44.999Z,21.43
2022-08-29T21:00:11.788Z,21.42
2022-08-29T21:02:56.943Z,21.63
2022-08-29T21:05:41.778Z,21.52
2022-08-29T21:08:09.031Z,21.59
2022-08-29T21:10:35.638Z,21.40
2022-08-29T21:13:02.554Z,21.38
2022-08-29T21:15:28.935Z,21.34
2022-08-29T21:17:55.303Z,21.53
2022-08-29T21:20:21.657Z,21.58
2022-08-29T21:22:48.019Z,21.44
2022-08-29T21:25:14.377Z,21.26
2022-08-29T21:27:40.735Z,21.39
2022-08-29T21:30:07.194Z,21.40
2022-08-29T21:32:33.549Z,21.42
2022-08-29T21:34:59.900Z,21.22
2022-08-29T21:37:26.264Z,21.25
2022-08-29T21:39:52.626Z,21.21
2022-08-29T21:42:19.018Z,21.23
2022-08-29T21:44:45.371Z,21.20
2022-08-29T21:47:14.838Z,21.27
2022-08-29T21:49:44.034Z,21.18
2022-08-29T21:52:10.863Z,21.40
2022-08-29T21:54:37.222Z,21.34
2022-08-29T21:57:03.617Z,21.30
2022-08-29T21:59:30.013Z,21.30
2022-08-29T22:01:56.947Z,21.27
2022-08-29T22:04:28.325Z,21.18
2022-08-29T22:06:55.603Z,21.10
2022-08-29T22:09:22.301Z,21.05
2022-08-29T22:11:48.670Z,20.96
2022-08-29T22:14:15.033Z,21.11
2022-08-29T22:16:41.385Z,21.22
2022-08-29T22:19:11.995Z,21.21
2022-08-29T22:21:39.265Z,21.09
2022-08-29T22:24:06.672Z,21.21
2022-08-29T22:26:33.050Z,21.12
2022-08-29T22:28:59.405Z,21.23
2022-08-29T22:31:25.853Z,21.12
2022-08-29T22:33:52.226Z,21.13
2022-08-29T22:36:19.161Z,20.95
2022-08-29T22:38:45.513Z,20.97
2022-08-29T22:41:12.331Z,20.85
2022-08-29T22:43:38.730Z,20.96
2022-08-29T22:46:08.918Z,20.83
2022-08-29T22:48:35.313Z,20.87
2022-08-29T22:51:01.747Z,21.00
2022-08-29T22:53:28.187Z,20.97
2022-08-29T22:55:54.599Z,21.05
2022-08-29T22:58:20.958Z,20.93
2022-08-29T23:00:47.340Z,20.85
2022-08-29T23:03:13.752Z,20.82
2022-08-29T23:05:40.179Z,20.84
2022-08-29T23:08:06.547Z,20.79
2022-08-29T23:10:32.905Z,21.02
2022-08-29T23:12:59.254Z,21.00
2022-08-29T23:15:25.686Z,20.88
2022-08-29T23:17:52.041Z,20.96
2022-08-29T23:20:19.145Z,21.00
2022-08-29T23:22:45.750Z,20.73
2022-08-29T23:25:12.413Z,20.84
2022-08-29T23:27:38.989Z,20.75
2022-08-29T23:30:05.975Z,20.89
2022-08-29T23:32:32.331Z,20.78
2022-08-29T23:34:58.696Z,20.78
2022-08-29T23:37:25.056Z,20.88
2022-08-29T23:39:51.413Z,20.86
2022-08-29T23:42:17.802Z,20.79
2022-08-29T23:44:44.157Z,20.77
2022-08-29T23:47:14.690Z,20.80
2022-08-29T23:49:41.050Z,20.97
2022-08-29T23:52:07.416Z,20.88
2022-08-29T23:54:36.435Z,20.75
2022-08-29T23:57:03.094Z,20.77
2022-08-29T23:59:48.101Z,20.97
